sensor_id;sensor_type;location;lat;lon;timestamp;pressure;altitude;pressure_sealevel;temperature;humidity
13612;BME280;6877;51.436;6.774;2022-07-06T00:00:12;102095.13;;;13.33;64.78
13612;BME280;6877;51.436;6.774;2022-07-06T00:02:44;102096.00;;;13.37;64.97
13612;BME280;6877;51.436;6.774;2022-07-06T00:05:15;102091.66;;;13.30;65.55
13612;BME280;6877;51.436;6.774;2022-07-06T00:07:46;102086.41;;;13.23;65.67
13612;BME280;6877;51.436;6.774;2022-07-06T00:10:18;102082.94;;;13.26;65.97
13612;BME280;6877;51.436;6.774;2022-07-06T00:12:49;102090.84;;;13.25;65.66
13612;BME280;6877;51.436;6.774;2022-07-06T00:15:16;102093.47;;;13.18;66.06
13612;BME280;6877;51.436;6.774;2022-07-06T00:17:47;102097.91;;;13.10;66.52
13612;BME280;6877;51.436;6.774;2022-07-06T00:20:19;102092.69;;;13.09;66.21
13612;BME280;6877;51.436;6.774;2022-07-06T00:22:51;102083.03;;;13.09;66.16
13612;BME280;6877;51.436;6.774;2022-07-06T00:25:22;102082.16;;;13.10;66.08
13612;BME280;6877;51.436;6.774;2022-07-06T00:27:54;102079.56;;;13.04;66.38
13612;BME280;6877;51.436;6.774;2022-07-06T00:30:25;102086.59;;;13.02;66.11
13612;BME280;6877;51.436;6.774;2022-07-06T00:32:57;102096.25;;;12.95;66.77
13612;BME280;6877;51.436;6.774;2022-07-06T00:35:25;102088.44;;;12.89;66.84
13612;BME280;6877;51.436;6.774;2022-07-06T00:37:52;102091.09;;;12.85;66.94
13612;BME280;6877;51.436;6.774;2022-07-06T00:40:19;102087.56;;;12.86;66.58
13612;BME280;6877;51.436;6.774;2022-07-06T00:42:50;102090.25;;;12.78;66.64
13612;BME280;6877;51.436;6.774;2022-07-06T00:45:22;102088.56;;;12.69;66.65
13612;BME280;6877;51.436;6.774;2022-07-06T00:47:54;102089.41;;;12.73;66.57
13612;BME280;6877;51.436;6.774;2022-07-06T00:50:26;102092.03;;;12.78;66.86
13612;BME280;6877;51.436;6.774;2022-07-06T00:53:04;102094.66;;;12.78;66.88
13612;BME280;6877;51.436;6.774;2022-07-06T00:55:39;102092.91;;;12.73;67.77
13612;BME280;6877;51.436;6.774;2022-07-06T00:58:11;102096.44;;;12.69;66.97
13612;BME280;6877;51.436;6.774;2022-07-06T01:00:42;102101.69;;;12.69;67.36
13612;BME280;6877;51.436;6.774;2022-07-06T01:03:15;102100.84;;;12.66;67.47
13612;BME280;6877;51.436;6.774;2022-07-06T01:05:47;102094.75;;;12.59;67.03
13612;BME280;6877;51.436;6.774;2022-07-06T01:08:14;102098.19;;;12.69;67.36
13612;BME280;6877;51.436;6.774;2022-07-06T01:10:46;102101.69;;;12.69;67.38
13612;BME280;6877;51.436;6.774;2022-07-06T01:13:18;102102.63;;;12.55;67.23
13612;BME280;6877;51.436;6.774;2022-07-06T01:15:49;102110.56;;;12.48;67.98
13612;BME280;6877;51.436;6.774;2022-07-06T01:18:16;102103.59;;;12.40;68.38
13612;BME280;6877;51.436;6.774;2022-07-06T01:20:43;102100.09;;;12.35;67.73
13612;BME280;6877;51.436;6.774;2022-07-06T01:23:14;102094.88;;;12.33;67.47
13612;BME280;6877;51.436;6.774;2022-07-06T01:25:45;102097.47;;;12.41;67.96
13612;BME280;6877;51.436;6.774;2022-07-06T01:28:17;102097.47;;;12.38;67.63
13612;BME280;6877;51.436;6.774;2022-07-06T01:30:48;102101.00;;;12.37;68.19
13612;BME280;6877;51.436;6.774;2022-07-06T01:33:20;102094.84;;;12.38;67.90
13612;BME280;6877;51.436;6.774;2022-07-06T01:35:51;102097.47;;;12.35;68.08
13612;BME280;6877;51.436;6.774;2022-07-06T01:38:23;102093.13;;;12.26;68.86
13612;BME280;6877;51.436;6.774;2022-07-06T01:40:54;102089.66;;;12.25;68.16
13612;BME280;6877;51.436;6.774;2022-07-06T01:43:26;102091.41;;;12.22;67.26
13612;BME280;6877;51.436;6.774;2022-07-06T01:45:57;102087.88;;;12.31;68.60
13612;BME280;6877;51.436;6.774;2022-07-06T01:48:28;102090.50;;;12.34;68.75
13612;BME280;6877;51.436;6.774;2022-07-06T01:51:00;102087.88;;;12.37;68.56
13612;BME280;6877;51.436;6.774;2022-07-06T01:53:31;102092.28;;;12.30;69.06
13612;BME280;6877;51.436;6.774;2022-07-06T01:56:03;102089.63;;;12.28;68.28
13612;BME280;6877;51.436;6.774;2022-07-06T01:58:35;102081.78;;;12.25;69.50
13612;BME280;6877;51.436;6.774;2022-07-06T02:01:12;102081.81;;;12.18;68.95
13612;BME280;6877;51.436;6.774;2022-07-06T02:03:44;102085.31;;;12.17;68.57
13612;BME280;6877;51.436;6.774;2022-07-06T02:06:16;102085.31;;;12.15;69.03
13612;BME280;6877;51.436;6.774;2022-07-06T02:08:47;102084.47;;;12.12;69.16
13612;BME280;6877;51.436;6.774;2022-07-06T02:11:19;102084.47;;;12.07;69.37
13612;BME280;6877;51.436;6.774;2022-07-06T02:13:51;102088.00;;;12.04;67.69
13612;BME280;6877;51.436;6.774;2022-07-06T02:16:22;102079.19;;;12.10;69.37
13612;BME280;6877;51.436;6.774;2022-07-06T02:18:54;102081.00;;;12.02;69.01
13612;BME280;6877;51.436;6.774;2022-07-06T02:21:25;102081.00;;;11.99;68.65
13612;BME280;6877;51.436;6.774;2022-07-06T02:23:57;102081.00;;;12.02;69.78
13612;BME280;6877;51.436;6.774;2022-07-06T02:26:28;102082.75;;;11.97;69.64
13612;BME280;6877;51.436;6.774;2022-07-06T02:28:59;102077.53;;;11.95;70.03
13612;BME280;6877;51.436;6.774;2022-07-06T02:31:31;102077.53;;;11.91;69.09
13612;BME280;6877;51.436;6.774;2022-07-06T02:33:58;102073.16;;;11.87;70.36
13612;BME280;6877;51.436;6.774;2022-07-06T02:36:29;102070.53;;;11.83;70.09
13612;BME280;6877;51.436;6.774;2022-07-06T02:39:00;102074.03;;;11.90;69.86
13612;BME280;6877;51.436;6.774;2022-07-06T02:41:32;102077.50;;;11.81;68.93
13612;BME280;6877;51.436;6.774;2022-07-06T02:44:03;102073.13;;;11.79;69.58
13612;BME280;6877;51.436;6.774;2022-07-06T02:46:35;102084.50;;;11.84;71.17
13612;BME280;6877;51.436;6.774;2022-07-06T02:49:06;102087.16;;;11.82;69.37
13612;BME280;6877;51.436;6.774;2022-07-06T02:51:38;102088.00;;;11.83;69.42
13612;BME280;6877;51.436;6.774;2022-07-06T02:54:09;102083.66;;;11.85;70.80
13612;BME280;6877;51.436;6.774;2022-07-06T02:56:41;102086.25;;;11.80;71.14
13612;BME280;6877;51.436;6.774;2022-07-06T02:59:07;102085.41;;;11.74;71.69
13612;BME280;6877;51.436;6.774;2022-07-06T03:01:39;102090.66;;;11.74;71.11
13612;BME280;6877;51.436;6.774;2022-07-06T03:04:10;102088.03;;;11.68;71.69
13612;BME280;6877;51.436;6.774;2022-07-06T03:06:41;102093.28;;;11.65;72.84
13612;BME280;6877;51.436;6.774;2022-07-06T03:09:08;102098.53;;;11.63;72.63
13612;BME280;6877;51.436;6.774;2022-07-06T03:11:39;102105.53;;;11.55;72.71
13612;BME280;6877;51.436;6.774;2022-07-06T03:14:06;102106.44;;;11.51;72.38
13612;BME280;6877;51.436;6.774;2022-07-06T03:16:32;102106.41;;;11.46;71.13
13612;BME280;6877;51.436;6.774;2022-07-06T03:19:04;102112.53;;;11.50;72.71
13612;BME280;6877;51.436;6.774;2022-07-06T03:21:30;102109.06;;;11.45;73.00
13612;BME280;6877;51.436;6.774;2022-07-06T03:24:02;102108.16;;;11.40;73.45
13612;BME280;6877;51.436;6.774;2022-07-06T03:26:33;102114.28;;;11.35;72.98
13612;BME280;6877;51.436;6.774;2022-07-06T03:29:05;102101.19;;;11.35;72.57
13612;BME280;6877;51.436;6.774;2022-07-06T03:31:36;102111.66;;;11.31;70.31
13612;BME280;6877;51.436;6.774;2022-07-06T03:34:03;102108.19;;;11.29;71.56
13612;BME280;6877;51.436;6.774;2022-07-06T03:36:35;102106.41;;;11.25;71.86
13612;BME280;6877;51.436;6.774;2022-07-06T03:39:06;102112.53;;;11.24;72.10
13612;BME280;6877;51.436;6.774;2022-07-06T03:41:38;102109.91;;;11.27;71.69
13612;BME280;6877;51.436;6.774;2022-07-06T03:44:10;102106.41;;;11.31;72.55
13612;BME280;6877;51.436;6.774;2022-07-06T03:46:41;102111.66;;;11.35;70.37
13612;BME280;6877;51.436;6.774;2022-07-06T03:49:13;102107.28;;;11.41;71.52
13612;BME280;6877;51.436;6.774;2022-07-06T03:51:39;102109.06;;;11.42;71.90
13612;BME280;6877;51.436;6.774;2022-07-06T03:54:11;102103.81;;;11.45;70.45
13612;BME280;6877;51.436;6.774;2022-07-06T03:56:38;102109.91;;;11.50;72.07
13612;BME280;6877;51.436;6.774;2022-07-06T03:59:04;102105.53;;;11.58;72.35
13612;BME280;6877;51.436;6.774;2022-07-06T04:01:36;102115.16;;;11.64;72.39
13612;BME280;6877;51.436;6.774;2022-07-06T04:04:07;102116.88;;;11.63;70.84
13612;BME280;6877;51.436;6.774;2022-07-06T04:06:39;102116.03;;;11.64;70.00
13612;BME280;6877;51.436;6.774;2022-07-06T04:09:11;102115.13;;;11.68;72.31
13612;BME280;6877;51.436;6.774;2022-07-06T04:11:42;102122.13;;;11.77;72.26
13612;BME280;6877;51.436;6.774;2022-07-06T04:14:13;102116.00;;;11.82;70.91
13612;BME280;6877;51.436;6.774;2022-07-06T04:16:45;102119.50;;;11.92;70.63
13612;BME280;6877;51.436;6.774;2022-07-06T04:19:16;102116.88;;;11.95;71.02
13612;BME280;6877;51.436;6.774;2022-07-06T04:21:48;102115.97;;;12.01;71.22
13612;BME280;6877;51.436;6.774;2022-07-06T04:24:19;102114.22;;;12.06;71.76
13612;BME280;6877;51.436;6.774;2022-07-06T04:26:51;102114.19;;;12.12;71.79
13612;BME280;6877;51.436;6.774;2022-07-06T04:29:22;102110.66;;;12.22;71.12
13612;BME280;6877;51.436;6.774;2022-07-06T04:31:49;102115.00;;;12.28;70.38
13612;BME280;6877;51.436;6.774;2022-07-06T04:34:20;102125.47;;;12.36;70.35
13612;BME280;6877;51.436;6.774;2022-07-06T04:36:52;102119.31;;;12.46;71.05
13612;BME280;6877;51.436;6.774;2022-07-06T04:39:23;102118.44;;;12.51;71.30
13612;BME280;6877;51.436;6.774;2022-07-06T04:41:55;102122.78;;;12.59;70.00
13612;BME280;6877;51.436;6.774;2022-07-06T04:44:26;102114.00;;;12.64;71.02
13612;BME280;6877;51.436;6.774;2022-07-06T04:46:58;102114.81;;;12.71;70.57
13612;BME280;6877;51.436;6.774;2022-07-06T04:49:29;102110.38;;;12.81;70.81
13612;BME280;6877;51.436;6.774;2022-07-06T04:52:01;102105.97;;;12.86;70.41
13612;BME280;6877;51.436;6.774;2022-07-06T04:54:33;102105.91;;;12.92;70.26
13612;BME280;6877;51.436;6.774;2022-07-06T04:57:04;102112.91;;;12.97;70.61
13612;BME280;6877;51.436;6.774;2022-07-06T04:59:36;102111.97;;;13.05;70.04
13612;BME280;6877;51.436;6.774;2022-07-06T05:02:07;102103.19;;;13.09;70.14
13612;BME280;6877;51.436;6.774;2022-07-06T05:04:39;102109.25;;;13.17;69.22
13612;BME280;6877;51.436;6.774;2022-07-06T05:07:10;102106.63;;;13.25;69.65
13612;BME280;6877;51.436;6.774;2022-07-06T05:09:41;102109.16;;;13.32;68.93
13612;BME280;6877;51.436;6.774;2022-07-06T05:12:08;102109.13;;;13.40;68.53
13612;BME280;6877;51.436;6.774;2022-07-06T05:14:35;102110.78;;;13.49;68.06
13612;BME280;6877;51.436;6.774;2022-07-06T05:17:07;102113.41;;;13.49;68.81
13612;BME280;6877;51.436;6.774;2022-07-06T05:19:39;102110.72;;;13.56;68.14
13612;BME280;6877;51.436;6.774;2022-07-06T05:22:05;102119.44;;;13.63;68.35
13612;BME280;6877;51.436;6.774;2022-07-06T05:24:31;102120.19;;;13.76;67.74
13612;BME280;6877;51.436;6.774;2022-07-06T05:26:58;102120.91;;;13.87;67.64
13612;BME280;6877;51.436;6.774;2022-07-06T05:29:29;102116.53;;;13.90;67.43
13612;BME280;6877;51.436;6.774;2022-07-06T05:32:01;102119.06;;;13.98;67.00
13612;BME280;6877;51.436;6.774;2022-07-06T05:34:33;102120.69;;;14.08;66.52
13612;BME280;6877;51.436;6.774;2022-07-06T05:37:02;102126.88;;;14.07;66.51
13612;BME280;6877;51.436;6.774;2022-07-06T05:39:28;102123.25;;;14.14;66.74
13612;BME280;6877;51.436;6.774;2022-07-06T05:42:00;102123.16;;;14.24;66.23
13612;BME280;6877;51.436;6.774;2022-07-06T05:44:31;102131.00;;;14.30;66.01
13612;BME280;6877;51.436;6.774;2022-07-06T05:47:03;102129.97;;;14.40;66.10
13612;BME280;6877;51.436;6.774;2022-07-06T05:49:53;102129.78;;;14.58;65.73
13612;BME280;6877;51.436;6.774;2022-07-06T05:52:45;102143.63;;;14.74;65.19
13612;BME280;6877;51.436;6.774;2022-07-06T05:55:26;102145.25;;;14.83;64.41
13612;BME280;6877;51.436;6.774;2022-07-06T05:57:58;102143.41;;;14.91;64.41
13612;BME280;6877;51.436;6.774;2022-07-06T06:00:26;102145.81;;;15.05;63.83
13612;BME280;6877;51.436;6.774;2022-07-06T06:02:58;102150.16;;;15.11;63.29
13612;BME280;6877;51.436;6.774;2022-07-06T06:05:30;102148.38;;;15.11;63.54
13612;BME280;6877;51.436;6.774;2022-07-06T06:08:02;102154.38;;;15.21;63.59
13612;BME280;6877;51.436;6.774;2022-07-06T06:10:34;102160.38;;;15.32;63.30
13612;BME280;6877;51.436;6.774;2022-07-06T06:13:05;102156.72;;;15.39;62.95
13612;BME280;6877;51.436;6.774;2022-07-06T06:15:37;102156.59;;;15.47;62.94
13612;BME280;6877;51.436;6.774;2022-07-06T06:18:09;102155.56;;;15.54;62.47
13612;BME280;6877;51.436;6.774;2022-07-06T06:20:40;102147.47;;;15.66;62.40
13612;BME280;6877;51.436;6.774;2022-07-06T06:23:11;102149.09;;;15.75;61.58
13612;BME280;6877;51.436;6.774;2022-07-06T06:25:43;102146.47;;;15.77;61.68
13612;BME280;6877;51.436;6.774;2022-07-06T06:28:14;102148.94;;;15.84;61.39
13612;BME280;6877;51.436;6.774;2022-07-06T06:30:41;102145.44;;;15.84;61.01
13612;BME280;6877;51.436;6.774;2022-07-06T06:33:10;102151.53;;;15.87;60.89
13612;BME280;6877;51.436;6.774;2022-07-06T06:35:48;102137.34;;;15.93;60.83
13612;BME280;6877;51.436;6.774;2022-07-06T06:38:22;102132.94;;;15.93;60.67
13612;BME280;6877;51.436;6.774;2022-07-06T06:40:56;102140.88;;;15.92;60.57
13612;BME280;6877;51.436;6.774;2022-07-06T06:43:28;102143.59;;;15.87;60.74
13612;BME280;6877;51.436;6.774;2022-07-06T06:46:00;102140.06;;;15.88;60.40
13612;BME280;6877;51.436;6.774;2022-07-06T06:48:26;102143.31;;;16.03;60.28
13612;BME280;6877;51.436;6.774;2022-07-06T06:50:53;102150.84;;;16.22;59.68
13612;BME280;6877;51.436;6.774;2022-07-06T06:53:24;102146.13;;;16.38;59.33
13612;BME280;6877;51.436;6.774;2022-07-06T06:55:56;102149.31;;;16.54;58.60
13612;BME280;6877;51.436;6.774;2022-07-06T06:58:27;102152.50;;;16.70;57.73
13612;BME280;6877;51.436;6.774;2022-07-06T07:00:58;102159.56;;;16.71;57.67
13612;BME280;6877;51.436;6.774;2022-07-06T07:03:31;102158.47;;;16.81;57.23
13612;BME280;6877;51.436;6.774;2022-07-06T07:06:02;102160.41;;;16.72;57.36
13612;BME280;6877;51.436;6.774;2022-07-06T07:08:29;102160.34;;;16.75;57.39
13612;BME280;6877;51.436;6.774;2022-07-06T07:11:00;102167.91;;;16.93;56.53
13612;BME280;6877;51.436;6.774;2022-07-06T07:13:32;102159.59;;;17.08;55.99
13612;BME280;6877;51.436;6.774;2022-07-06T07:16:04;102167.91;;;17.30;55.94
13612;BME280;6877;51.436;6.774;2022-07-06T07:18:35;102165.84;;;17.43;54.98
13612;BME280;6877;51.436;6.774;2022-07-06T07:21:07;102162.56;;;17.69;54.39
13612;BME280;6877;51.436;6.774;2022-07-06T07:23:38;102177.16;;;17.86;53.65
13612;BME280;6877;51.436;6.774;2022-07-06T07:26:10;102159.53;;;17.85;53.88
13612;BME280;6877;51.436;6.774;2022-07-06T07:28:41;102165.03;;;17.77;54.57
13612;BME280;6877;51.436;6.774;2022-07-06T07:31:12;102171.63;;;17.95;54.18
13612;BME280;6877;51.436;6.774;2022-07-06T07:33:39;102161.25;;;18.18;53.82
13612;BME280;6877;51.436;6.774;2022-07-06T07:36:10;102171.69;;;18.24;53.50
13612;BME280;6877;51.436;6.774;2022-07-06T07:38:42;102168.44;;;18.46;53.32
13612;BME280;6877;51.436;6.774;2022-07-06T07:41:13;102165.16;;;18.67;52.36
13612;BME280;6877;51.436;6.774;2022-07-06T07:43:45;102166.78;;;18.71;52.06
13612;BME280;6877;51.436;6.774;2022-07-06T07:46:17;102170.91;;;18.82;52.06
13612;BME280;6877;51.436;6.774;2022-07-06T07:48:43;102175.44;;;18.80;51.92
13612;BME280;6877;51.436;6.774;2022-07-06T07:51:15;102175.34;;;19.11;51.21
13612;BME280;6877;51.436;6.774;2022-07-06T07:53:41;102171.44;;;19.49;49.82
13612;BME280;6877;51.436;6.774;2022-07-06T07:56:12;102180.38;;;19.47;49.70
13612;BME280;6877;51.436;6.774;2022-07-06T07:58:44;102174.03;;;19.51;49.47
13612;BME280;6877;51.436;6.774;2022-07-06T08:01:10;102170.28;;;19.58;49.04
13612;BME280;6877;51.436;6.774;2022-07-06T08:03:42;102170.88;;;19.67;48.99
13612;BME280;6877;51.436;6.774;2022-07-06T08:06:13;102172.44;;;20.72;46.94
13612;BME280;6877;51.436;6.774;2022-07-06T08:08:45;102169.38;;;21.48;45.24
13612;BME280;6877;51.436;6.774;2022-07-06T08:11:11;102157.56;;;22.17;43.46
13612;BME280;6877;51.436;6.774;2022-07-06T08:13:42;102161.28;;;22.33;42.77
13612;BME280;6877;51.436;6.774;2022-07-06T08:16:14;102166.78;;;22.49;42.02
13612;BME280;6877;51.436;6.774;2022-07-06T08:18:41;102160.94;;;23.88;39.63
13612;BME280;6877;51.436;6.774;2022-07-06T08:21:13;102168.81;;;24.57;37.74
13612;BME280;6877;51.436;6.774;2022-07-06T08:23:44;102160.13;;;23.86;38.38
13612;BME280;6877;51.436;6.774;2022-07-06T08:26:16;102172.28;;;23.03;39.90
13612;BME280;6877;51.436;6.774;2022-07-06T08:28:48;102163.41;;;22.05;42.26
13612;BME280;6877;51.436;6.774;2022-07-06T08:31:14;102166.81;;;21.47;43.61
13612;BME280;6877;51.436;6.774;2022-07-06T08:33:46;102163.06;;;21.29;43.79
13612;BME280;6877;51.436;6.774;2022-07-06T08:36:12;102164.00;;;21.06;43.83
13612;BME280;6877;51.436;6.774;2022-07-06T08:38:43;102163.06;;;20.85;43.54
13612;BME280;6877;51.436;6.774;2022-07-06T08:41:16;102156.47;;;20.72;42.96
13612;BME280;6877;51.436;6.774;2022-07-06T08:43:49;102157.84;;;20.82;43.38
13612;BME280;6877;51.436;6.774;2022-07-06T08:46:21;102156.66;;;20.89;43.27
13612;BME280;6877;51.436;6.774;2022-07-06T08:48:53;102157.41;;;21.15;42.97
13612;BME280;6877;51.436;6.774;2022-07-06T08:51:25;102154.00;;;22.75;39.12
13612;BME280;6877;51.436;6.774;2022-07-06T08:53:57;102153.25;;;24.48;36.60
13612;BME280;6877;51.436;6.774;2022-07-06T08:56:29;102151.97;;;23.71;36.43
13612;BME280;6877;51.436;6.774;2022-07-06T08:59:01;102160.03;;;22.99;37.90
13612;BME280;6877;51.436;6.774;2022-07-06T09:01:33;102156.16;;;24.27;35.15
13612;BME280;6877;51.436;6.774;2022-07-06T09:04:05;102159.66;;;24.77;34.40
13612;BME280;6877;51.436;6.774;2022-07-06T09:06:33;102163.81;;;25.30;32.86
13612;BME280;6877;51.436;6.774;2022-07-06T09:09:05;102162.28;;;25.26;33.93
13612;BME280;6877;51.436;6.774;2022-07-06T09:11:38;102156.22;;;25.07;33.67
13612;BME280;6877;51.436;6.774;2022-07-06T09:14:10;102160.84;;;24.56;33.59
13612;BME280;6877;51.436;6.774;2022-07-06T09:16:42;102151.97;;;24.22;34.39
13612;BME280;6877;51.436;6.774;2022-07-06T09:19:13;102165.16;;;23.92;35.95
13612;BME280;6877;51.436;6.774;2022-07-06T09:21:46;102156.25;;;23.56;36.90
13612;BME280;6877;51.436;6.774;2022-07-06T09:24:19;102157.28;;;23.36;37.37
13612;BME280;6877;51.436;6.774;2022-07-06T09:26:50;102156.66;;;25.61;34.14
13612;BME280;6877;51.436;6.774;2022-07-06T09:29:29;102144.38;;;27.67;30.75
13612;BME280;6877;51.436;6.774;2022-07-06T09:32:02;102143.00;;;27.74;29.10
13612;BME280;6877;51.436;6.774;2022-07-06T09:34:42;102139.59;;;29.09;27.79
13612;BME280;6877;51.436;6.774;2022-07-06T09:37:14;102140.91;;;31.30;25.56
13612;BME280;6877;51.436;6.774;2022-07-06T09:39:45;102142.72;;;32.75;23.53
13612;BME280;6877;51.436;6.774;2022-07-06T09:42:12;102136.53;;;34.09;23.13
13612;BME280;6877;51.436;6.774;2022-07-06T09:44:43;102138.53;;;36.22;21.33
13612;BME280;6877;51.436;6.774;2022-07-06T09:47:11;102147.22;;;38.23;18.72
13612;BME280;6877;51.436;6.774;2022-07-06T09:49:43;102146.88;;;38.18;19.01
13612;BME280;6877;51.436;6.774;2022-07-06T09:52:10;102147.47;;;35.36;20.76
13612;BME280;6877;51.436;6.774;2022-07-06T09:54:42;102134.13;;;32.20;23.61
13612;BME280;6877;51.436;6.774;2022-07-06T09:57:13;102147.16;;;30.78;25.13
13612;BME280;6877;51.436;6.774;2022-07-06T09:59:50;102150.41;;;28.97;27.05
13612;BME280;6877;51.436;6.774;2022-07-06T10:02:23;102142.63;;;28.68;26.53
13612;BME280;6877;51.436;6.774;2022-07-06T10:04:57;102139.63;;;29.91;24.96
13612;BME280;6877;51.436;6.774;2022-07-06T10:07:29;102143.09;;;31.48;23.87
13612;BME280;6877;51.436;6.774;2022-07-06T10:09:56;102140.38;;;33.01;21.25
13612;BME280;6877;51.436;6.774;2022-07-06T10:12:28;102130.47;;;33.78;20.89
13612;BME280;6877;51.436;6.774;2022-07-06T10:14:59;102142.22;;;34.16;20.14
13612;BME280;6877;51.436;6.774;2022-07-06T10:17:32;102132.63;;;32.96;21.25
13612;BME280;6877;51.436;6.774;2022-07-06T10:20:04;102132.00;;;31.72;22.12
13612;BME280;6877;51.436;6.774;2022-07-06T10:22:37;102128.50;;;30.52;23.45
13612;BME280;6877;51.436;6.774;2022-07-06T10:25:11;102135.13;;;29.21;25.61
13612;BME280;6877;51.436;6.774;2022-07-06T10:27:43;102130.22;;;28.29;26.17
13612;BME280;6877;51.436;6.774;2022-07-06T10:30:15;102140.50;;;27.58;27.57
13612;BME280;6877;51.436;6.774;2022-07-06T10:32:44;102136.50;;;26.84;28.76
13612;BME280;6877;51.436;6.774;2022-07-06T10:35:16;102128.19;;;26.46;29.73
13612;BME280;6877;51.436;6.774;2022-07-06T10:38:09;102131.81;;;28.57;27.54
13612;BME280;6877;51.436;6.774;2022-07-06T10:40:41;102127.56;;;29.62;25.39
13612;BME280;6877;51.436;6.774;2022-07-06T10:43:42;102131.91;;;30.54;24.86
13612;BME280;6877;51.436;6.774;2022-07-06T10:46:17;102131.84;;;31.52;23.40
13612;BME280;6877;51.436;6.774;2022-07-06T10:48:51;102130.84;;;30.45;24.56
13612;BME280;6877;51.436;6.774;2022-07-06T10:51:27;102125.31;;;29.55;25.27
13612;BME280;6877;51.436;6.774;2022-07-06T10:54:01;102128.66;;;28.63;26.88
13612;BME280;6877;51.436;6.774;2022-07-06T10:56:42;102130.34;;;28.02;27.98
13612;BME280;6877;51.436;6.774;2022-07-06T10:59:15;102131.53;;;28.10;27.41
13612;BME280;6877;51.436;6.774;2022-07-06T11:04:45;102129.16;;;26.30;29.27
13612;BME280;6877;51.436;6.774;2022-07-06T11:07:19;102132.22;;;26.10;29.94
13612;BME280;6877;51.436;6.774;2022-07-06T11:09:56;102119.50;;;27.78;28.18
13612;BME280;6877;51.436;6.774;2022-07-06T11:12:27;102116.34;;;28.96;26.61
13612;BME280;6877;51.436;6.774;2022-07-06T11:14:59;102121.00;;;29.42;25.88
13612;BME280;6877;51.436;6.774;2022-07-06T11:17:28;102121.53;;;29.58;25.78
13612;BME280;6877;51.436;6.774;2022-07-06T11:20:10;102124.94;;;29.14;25.77
13612;BME280;6877;51.436;6.774;2022-07-06T11:22:43;102112.88;;;28.20;27.38
13612;BME280;6877;51.436;6.774;2022-07-06T11:25:10;102112.28;;;27.91;27.77
13612;BME280;6877;51.436;6.774;2022-07-06T11:27:42;102108.91;;;28.26;27.58
13612;BME280;6877;51.436;6.774;2022-07-06T11:30:14;102115.13;;;28.26;27.27
13612;BME280;6877;51.436;6.774;2022-07-06T11:32:42;102122.88;;;28.56;27.54
13612;BME280;6877;51.436;6.774;2022-07-06T11:35:21;102114.56;;;28.34;27.51
13612;BME280;6877;51.436;6.774;2022-07-06T11:37:53;102118.59;;;27.90;27.92
13612;BME280;6877;51.436;6.774;2022-07-06T11:40:24;102121.16;;;26.86;29.24
13612;BME280;6877;51.436;6.774;2022-07-06T11:42:56;102114.78;;;26.31;30.41
13612;BME280;6877;51.436;6.774;2022-07-06T11:45:27;102117.59;;;25.71;31.20
13612;BME280;6877;51.436;6.774;2022-07-06T11:48:12;102123.56;;;25.00;32.20
13612;BME280;6877;51.436;6.774;2022-07-06T11:50:43;102119.63;;;24.60;33.18
13612;BME280;6877;51.436;6.774;2022-07-06T11:53:15;102108.41;;;24.53;33.29
13612;BME280;6877;51.436;6.774;2022-07-06T11:55:41;102109.94;;;24.89;32.95
13612;BME280;6877;51.436;6.774;2022-07-06T11:58:13;102113.72;;;25.16;32.58
13612;BME280;6877;51.436;6.774;2022-07-06T12:01:03;102098.91;;;25.09;32.46
13612;BME280;6877;51.436;6.774;2022-07-06T12:03:35;102108.06;;;24.75;33.06
13612;BME280;6877;51.436;6.774;2022-07-06T12:06:13;102104.25;;;24.79;32.84
13612;BME280;6877;51.436;6.774;2022-07-06T12:08:45;102105.28;;;24.77;32.46
13612;BME280;6877;51.436;6.774;2022-07-06T12:11:38;102098.56;;;24.36;32.85
13612;BME280;6877;51.436;6.774;2022-07-06T12:14:18;102087.75;;;24.06;32.99
13612;BME280;6877;51.436;6.774;2022-07-06T12:16:50;102092.09;;;24.09;33.29
13612;BME280;6877;51.436;6.774;2022-07-06T12:19:16;102097.34;;;23.93;33.53
13612;BME280;6877;51.436;6.774;2022-07-06T12:21:51;102092.38;;;23.87;33.95
13612;BME280;6877;51.436;6.774;2022-07-06T12:24:23;102089.38;;;23.75;34.12
13612;BME280;6877;51.436;6.774;2022-07-06T12:27:13;102087.50;;;23.43;34.73
13612;BME280;6877;51.436;6.774;2022-07-06T12:29:40;102083.25;;;23.56;34.80
13612;BME280;6877;51.436;6.774;2022-07-06T12:32:17;102078.28;;;23.66;34.45
13612;BME280;6877;51.436;6.774;2022-07-06T12:35:08;102067.38;;;23.53;34.81
13612;BME280;6877;51.436;6.774;2022-07-06T12:37:54;102069.66;;;23.26;35.61
13612;BME280;6877;51.436;6.774;2022-07-06T12:40:27;102068.34;;;23.17;35.12
13612;BME280;6877;51.436;6.774;2022-07-06T12:42:59;102075.56;;;23.15;35.35
13612;BME280;6877;51.436;6.774;2022-07-06T12:45:31;102069.44;;;23.30;34.91
13612;BME280;6877;51.436;6.774;2022-07-06T12:50:38;102070.19;;;23.32;35.46
13612;BME280;6877;51.436;6.774;2022-07-06T12:53:26;102056.38;;;23.42;35.17
13612;BME280;6877;51.436;6.774;2022-07-06T12:56:11;102047.25;;;23.63;34.54
13612;BME280;6877;51.436;6.774;2022-07-06T12:59:00;102058.03;;;23.62;34.79
13612;BME280;6877;51.436;6.774;2022-07-06T13:01:31;102049.47;;;23.55;35.11
13612;BME280;6877;51.436;6.774;2022-07-06T13:04:07;102057.16;;;23.78;34.86
13612;BME280;6877;51.436;6.774;2022-07-06T13:06:38;102052.28;;;23.87;34.36
13612;BME280;6877;51.436;6.774;2022-07-06T13:09:10;102048.88;;;23.83;34.61
13612;BME280;6877;51.436;6.774;2022-07-06T13:11:41;102045.66;;;23.76;34.27
13612;BME280;6877;51.436;6.774;2022-07-06T13:14:14;102035.31;;;23.53;34.28
13612;BME280;6877;51.436;6.774;2022-07-06T13:16:46;102035.97;;;23.41;34.94
13612;BME280;6877;51.436;6.774;2022-07-06T13:19:14;102039.25;;;23.46;35.23
13612;BME280;6877;51.436;6.774;2022-07-06T13:21:46;102043.56;;;23.48;35.08
13612;BME280;6877;51.436;6.774;2022-07-06T13:24:12;102036.81;;;23.41;35.43
13612;BME280;6877;51.436;6.774;2022-07-06T13:26:39;102033.00;;;23.80;34.18
13612;BME280;6877;51.436;6.774;2022-07-06T13:29:10;102031.06;;;23.99;33.07